createdAt,value
2019-05-02T00:00:22.252Z,1003.34
2019-05-02T00:01:02.829Z,1003.32
2019-05-02T00:01:43.382Z,1003.31
2019-05-02T00:02:28.550Z,1003.31
2019-05-02T00:03:05.682Z,1003.34
2019-05-02T00:03:45.076Z,1003.27
2019-05-02T00:04:25.684Z,1003.33
2019-05-02T00:05:06.250Z,1003.29
2019-05-02T00:05:46.830Z,1003.25
2019-05-02T00:06:27.382Z,1003.26
2019-05-02T00:07:07.944Z,1003.26
2019-05-02T00:07:48.499Z,1003.31
2019-05-02T00:08:32.770Z,1003.29
2019-05-02T00:09:11.083Z,1003.31
2019-05-02T00:09:50.371Z,1003.24
2019-05-02T00:10:30.743Z,1003.28
2019-05-02T00:11:11.398Z,1003.22
2019-05-02T00:11:58.453Z,1003.27
2019-05-02T00:12:32.550Z,1003.24
2019-05-02T00:13:13.099Z,1003.25
2019-05-02T00:13:53.650Z,1003.21
2019-05-02T00:14:34.615Z,1003.26
2019-05-02T00:15:15.184Z,1003.3
2019-05-02T00:15:55.756Z,1003.21
2019-05-02T00:16:36.301Z,1003.3
2019-05-02T00:17:20.139Z,1003.23
2019-05-02T00:18:01.335Z,1003.25
2019-05-02T00:18:39.025Z,1003.18
2019-05-02T00:19:18.562Z,1003.21
2019-05-02T00:19:59.117Z,1003.19
2019-05-02T00:20:39.694Z,1003.2
2019-05-02T00:21:20.877Z,1003.22
2019-05-02T00:22:02.359Z,1003.18
2019-05-02T00:22:42.906Z,1003.19
2019-05-02T00:23:27.862Z,1003.22
2019-05-02T00:24:04.205Z,1003.16
2019-05-02T00:24:44.594Z,1003.13
2019-05-02T00:25:25.133Z,1003.15
2019-05-02T00:26:05.724Z,1003.12
2019-05-02T00:26:46.298Z,1003.13
2019-05-02T00:27:26.854Z,1003.11
2019-05-02T00:28:07.669Z,1003.11
2019-05-02T00:28:49.847Z,1003.09
2019-05-02T00:29:28.564Z,1003.13
2019-05-02T00:30:09.130Z,1003.11
2019-05-02T00:30:49.678Z,1003.09
2019-05-02T00:31:30.256Z,1003.12
2019-05-02T00:32:10.822Z,1003.05
2019-05-02T00:32:53.088Z,1003.06
2019-05-02T00:33:34.266Z,1003.1
2019-05-02T00:34:12.540Z,1003.1
2019-05-02T00:34:53.099Z,1003.08
2019-05-02T00:35:33.655Z,1003.12
2019-05-02T00:36:14.212Z,1003.11
2019-05-02T00:36:54.784Z,1003.11
2019-05-02T00:37:35.344Z,1003.11
2019-05-02T00:38:15.899Z,1003.08
2019-05-02T00:38:56.464Z,1003.12
2019-05-02T00:39:37.033Z,1003.08
2019-05-02T00:40:20.039Z,1003.08
2019-05-02T00:41:02.113Z,1003.06
2019-05-02T00:41:40.439Z,1003.08
2019-05-02T00:42:22.368Z,1003.06
2019-05-02T00:42:59.908Z,1003.04
2019-05-02T00:43:40.462Z,1003.04
2019-05-02T00:44:21.018Z,1003.1
2019-05-02T00:45:01.569Z,1003.08
2019-05-02T00:45:42.149Z,1003.05
2019-05-02T00:46:22.699Z,1003.04
2019-05-02T00:47:06.001Z,1003.03
2019-05-02T00:47:47.568Z,1003.04
2019-05-02T00:48:24.463Z,1003.03
2019-05-02T00:49:04.929Z,1003.03
2019-05-02T00:49:45.489Z,1003.05
2019-05-02T00:50:26.051Z,1003.05
2019-05-02T00:51:06.625Z,1003.02
2019-05-02T00:51:47.384Z,1002.99
2019-05-02T00:52:28.411Z,1002.97
2019-05-02T00:53:11.947Z,1002.99
2019-05-02T00:53:50.795Z,1003.01
2019-05-02T00:54:32.038Z,1002.97
2019-05-02T00:55:12.595Z,1002.94
2019-05-02T00:55:53.178Z,1002.97
2019-05-02T00:56:33.739Z,1002.96
2019-05-02T00:57:14.811Z,1002.9
2019-05-02T00:57:55.599Z,1002.91
2019-05-02T00:58:35.411Z,1002.91
2019-05-02T00:59:15.960Z,1002.95
2019-05-02T00:59:56.529Z,1002.96
2019-05-02T01:00:37.107Z,1002.95
2019-05-02T01:01:17.674Z,1002.96
2019-05-02T01:01:59.923Z,1002.94
2019-05-02T01:02:40.483Z,1002.93
2019-05-02T01:03:19.404Z,1002.92
2019-05-02T01:03:59.957Z,1002.9
2019-05-02T01:04:40.548Z,1002.88
2019-05-02T01:05:21.106Z,1002.9
2019-05-02T01:06:01.670Z,1002.93
2019-05-02T01:06:44.622Z,1002.91
2019-05-02T01:07:25.359Z,1002.87
2019-05-02T01:08:03.357Z,1002.91
2019-05-02T01:08:43.943Z,1002.88
2019-05-02T01:09:24.498Z,1002.88
2019-05-02T01:10:05.093Z,1002.85
2019-05-02T01:10:45.646Z,1002.82
2019-05-02T01:11:28.169Z,1002.86
2019-05-02T01:12:08.262Z,1002.87
2019-05-02T01:12:47.325Z,1002.78
2019-05-02T01:13:27.898Z,1002.82
2019-05-02T01:14:08.455Z,1002.81
2019-05-02T01:14:49.027Z,1002.8
2019-05-02T01:15:29.607Z,1002.75
2019-05-02T01:16:10.172Z,1002.75
2019-05-02T01:16:54.187Z,1002.76
2019-05-02T01:17:32.268Z,1002.75
2019-05-02T01:18:11.858Z,1002.76
2019-05-02T01:18:52.414Z,1002.73
2019-05-02T01:19:32.977Z,1002.71
2019-05-02T01:20:13.540Z,1002.74
2019-05-02T01:20:58.024Z,1002.76
2019-05-02T01:21:38.750Z,1002.73
2019-05-02T01:22:15.823Z,1002.72
2019-05-02T01:22:55.777Z,1002.76
2019-05-02T01:23:36.432Z,1002.73
2019-05-02T01:24:17.082Z,1002.72
2019-05-02T01:24:57.614Z,1002.65
2019-05-02T01:25:38.183Z,1002.71
2019-05-02T01:26:18.732Z,1002.69
2019-05-02T01:26:59.763Z,1002.71
2019-05-02T01:27:41.065Z,1002.68
2019-05-02T01:28:20.409Z,1002.73
2019-05-02T01:29:00.971Z,1002.71
2019-05-02T01:29:41.557Z,1002.64
2019-05-02T01:30:22.150Z,1002.65
2019-05-02T01:31:02.675Z,1002.63
2019-05-02T01:31:43.243Z,1002.64
2019-05-02T01:34:42.027Z,1002.6
2019-05-02T01:35:22.581Z,1002.63
2019-05-02T01:36:06.210Z,1002.59
2019-05-02T01:36:43.727Z,1002.59
2019-05-02T01:37:24.288Z,1002.61
2019-05-02T01:38:04.848Z,1002.6
2019-05-02T01:38:45.394Z,1002.54
2019-05-02T01:39:25.987Z,1002.61
2019-05-02T01:40:06.564Z,1002.61
2019-05-02T01:40:48.033Z,1002.59
2019-05-02T01:41:29.062Z,1002.54
2019-05-02T01:42:08.254Z,1002.55
2019-05-02T01:42:50.666Z,1002.54
2019-05-02T01:43:29.385Z,1002.55
2019-05-02T01:44:09.956Z,1002.51
2019-05-02T01:44:50.513Z,1002.52
2019-05-02T01:45:31.065Z,1002.5
2019-05-02T01:46:11.623Z,1002.55
2019-05-02T01:46:53.944Z,1002.53
2019-05-02T01:47:34.046Z,1002.55
2019-05-02T01:48:13.334Z,1002.53
2019-05-02T01:48:53.881Z,1002.51
2019-05-02T01:49:34.439Z,1002.53
2019-05-02T01:50:14.993Z,1002.51
2019-05-02T01:50:55.547Z,1002.49
2019-05-02T01:51:36.824Z,1002.5
2019-05-02T01:52:18.834Z,1002.5
2019-05-02T01:52:58.429Z,1002.44
2019-05-02T01:53:37.851Z,1002.46
2019-05-02T01:54:18.410Z,1002.5
2019-05-02T01:54:58.972Z,1002.46
2019-05-02T01:55:39.534Z,1002.45
2019-05-02T01:56:20.090Z,1002.48
2019-05-02T01:57:03.865Z,1002.44
2019-05-02T01:57:44.629Z,1002.45
2019-05-02T01:58:22.853Z,1002.42
2019-05-02T01:59:02.365Z,1002.44
2019-05-02T01:59:42.916Z,1002.42
2019-05-02T02:00:23.567Z,1002.43
2019-05-02T02:01:04.153Z,1002.41
2019-05-02T02:01:44.729Z,1002.42
2019-05-02T02:02:27.992Z,1002.38
2019-05-02T02:03:09.004Z,1002.39
2019-05-02T02:03:46.970Z,1002.39
2019-05-02T02:04:27.059Z,1002.38
2019-05-02T02:05:07.638Z,1002.37
2019-05-02T02:05:48.202Z,1002.36
2019-05-02T02:06:28.775Z,1002.35
2019-05-02T02:07:09.378Z,1002.32
2019-05-02T02:07:50.717Z,1002.37
2019-05-02T02:08:32.397Z,1002.33
2019-05-02T02:09:11.122Z,1002.37
2019-05-02T02:09:51.694Z,1002.29
2019-05-02T02:10:32.266Z,1002.33
2019-05-02T02:11:12.831Z,1002.3
2019-05-02T02:11:53.394Z,1002.29
2019-05-02T02:12:33.960Z,1002.25
2019-05-02T02:13:14.527Z,1002.27
2019-05-02T02:13:55.047Z,1002.28
2019-05-02T02:14:35.705Z,1002.29
2019-05-02T02:15:16.274Z,1002.26
2019-05-02T02:16:00.094Z,1002.25
2019-05-02T02:16:39.204Z,1002.27
2019-05-02T02:17:18.016Z,1002.28
2019-05-02T02:17:58.596Z,1002.24
2019-05-02T02:18:39.153Z,1002.25
2019-05-02T02:19:19.717Z,1002.28
2019-05-02T02:20:00.274Z,1002.25
2019-05-02T02:20:45.088Z,1002.23
2019-05-02T02:21:25.495Z,1002.24
2019-05-02T02:22:02.659Z,1002.23
2019-05-02T02:22:42.617Z,1002.26
2019-05-02T02:23:23.177Z,1002.24
2019-05-02T02:24:03.727Z,1002.22
2019-05-02T02:24:44.307Z,1002.29
2019-05-02T02:25:24.861Z,1002.23
2019-05-02T02:26:06.681Z,1002.24
2019-05-02T02:26:48.129Z,1002.24
2019-05-02T02:27:26.550Z,1002.27
2019-05-02T02:28:07.131Z,1002.24
2019-05-02T02:28:47.678Z,1002.17
2019-05-02T02:29:28.232Z,1002.24
2019-05-02T02:30:08.802Z,1002.26
2019-05-02T02:30:49.334Z,1002.24
2019-05-02T02:31:29.895Z,1002.26
2019-05-02T02:32:10.465Z,1002.26
2019-05-02T02:35:09.864Z,1002.23
2019-05-02T02:35:51.847Z,1002.25
2019-05-02T02:36:33.789Z,1002.27
2019-05-02T02:37:12.317Z,1002.32
2019-05-02T02:37:52.860Z,1002.27
2019-05-02T02:38:33.201Z,1002.26
2019-05-02T02:39:13.970Z,1002.31
2019-05-02T02:39:53.952Z,1002.27
2019-05-02T02:40:35.591Z,1002.26
2019-05-02T02:41:15.184Z,1002.23
2019-05-02T02:41:54.948Z,1002.2
2019-05-02T02:42:35.519Z,1002.24
2019-05-02T02:43:32.700Z,1002.19
2019-05-02T02:44:00.464Z,1002.21
2019-05-02T02:44:39.804Z,1002.27
2019-05-02T02:45:18.505Z,1002.17
2019-05-02T02:45:59.690Z,1002.13
2019-05-02T02:46:40.054Z,1002.19
2019-05-02T02:47:21.125Z,1002.23
2019-05-02T02:48:02.330Z,1002.15
2019-05-02T02:48:42.508Z,1002.17
2019-05-02T02:49:24.117Z,1002.15
2019-05-02T02:50:02.816Z,1002.19
2019-05-02T02:50:42.914Z,1002.14
2019-05-02T02:51:25.703Z,1002.13
2019-05-02T02:52:04.673Z,1002.13
2019-05-02T02:52:46.823Z,1002.22
2019-05-02T02:53:25.719Z,1002.16
2019-05-02T02:54:05.735Z,1002.14
2019-05-02T02:54:45.672Z,1002.11
2019-05-02T02:55:26.210Z,1002.06
2019-05-02T02:56:06.760Z,1002.09
2019-05-02T02:56:47.350Z,1002.16
2019-05-02T02:57:28.556Z,1002.11
2019-05-02T02:58:08.485Z,1002.15
2019-05-02T02:58:49.071Z,1002.09
2019-05-02T02:59:29.622Z,1002.16
2019-05-02T03:00:10.996Z,1002.18
2019-05-02T03:00:50.738Z,1002.14
2019-05-02T03:01:31.398Z,1002.15
2019-05-02T03:02:12.339Z,1002.18
2019-05-02T03:02:52.429Z,1002.14
2019-05-02T03:03:35.250Z,1002.15
2019-05-02T03:04:13.553Z,1002.09
2019-05-02T03:04:54.118Z,1002.08
2019-05-02T03:05:34.689Z,1002.13
2019-05-02T03:06:15.260Z,1002.16
2019-05-02T03:06:55.809Z,1002.11
2019-05-02T03:07:36.352Z,1002.13
2019-05-02T03:08:16.915Z,1002.07
2019-05-02T03:08:57.469Z,1002.13
2019-05-02T03:09:38.035Z,1002.13
2019-05-02T03:10:18.587Z,1002.12
2019-05-02T03:10:59.170Z,1002.05
2019-05-02T03:11:39.724Z,1002.06
2019-05-02T03:12:20.293Z,1002.14
2019-05-02T03:13:00.847Z,1002.12
2019-05-02T03:13:52.213Z,1002.06
2019-05-02T03:14:22.582Z,1002.06
2019-05-02T03:15:03.138Z,1002.08
2019-05-02T03:15:43.691Z,1002.04
2019-05-02T03:16:24.240Z,1002.05
2019-05-02T03:17:04.833Z,1002.04
2019-05-02T03:17:45.409Z,1002.1
2019-05-02T03:18:26.950Z,1002.11
2019-05-02T03:19:06.528Z,1002.05
2019-05-02T03:19:47.094Z,1002.11
2019-05-02T03:20:27.656Z,1002.02
2019-05-02T03:21:13.160Z,1002.06
2019-05-02T03:21:54.190Z,1002.07
2019-05-02T03:22:34.667Z,1002
2019-05-02T03:23:14.963Z,1002.03
2019-05-02T03:24:01.180Z,1002.02
2019-05-02T03:24:36.407Z,1002.05
2019-05-02T03:25:17.892Z,1002.03
2019-05-02T03:25:52.222Z,1002.02
2019-05-02T03:26:32.787Z,1002.07
2019-05-02T03:27:13.394Z,1002.02
2019-05-02T03:27:53.939Z,1002.01
2019-05-02T03:28:34.526Z,1002.02
2019-05-02T03:29:15.121Z,1002.03
2019-05-02T03:29:55.755Z,1002.04
2019-05-02T03:30:37.600Z,1001.96
2019-05-02T03:31:29.418Z,1002.02
2019-05-02T03:32:26.872Z,1002.03
2019-05-02T03:32:38.066Z,1002.03
2019-05-02T03:33:18.615Z,1002.01
2019-05-02T03:34:00.950Z,1001.99
2019-05-02T03:34:52.129Z,1002
2019-05-02T03:35:39.567Z,1002.07
2019-05-02T03:36:00.930Z,1001.99
2019-05-02T03:36:41.486Z,1002
2019-05-02T03:37:22.058Z,1002.01
2019-05-02T03:38:02.682Z,1002.03
2019-05-02T03:38:43.238Z,1002.01
2019-05-02T03:39:23.850Z,1002.04
2019-05-02T03:40:04.415Z,1002.01
2019-05-02T03:40:44.968Z,1002.02
2019-05-02T03:41:25.526Z,1002.02
2019-05-02T03:42:06.126Z,1002.04
2019-05-02T03:42:47.596Z,1001.95
2019-05-02T03:43:27.720Z,1001.95
2019-05-02T03:46:25.990Z,1001.97
2019-05-02T03:47:06.536Z,1001.99
2019-05-02T03:47:47.133Z,1001.96
2019-05-02T03:48:27.953Z,1001.91
2019-05-02T03:49:09.646Z,1002
2019-05-02T03:49:51.699Z,1001.88
2019-05-02T03:50:32.309Z,1001.91
2019-05-02T03:51:19.078Z,1001.95
2019-05-02T03:51:55.739Z,1001.91
2019-05-02T03:52:36.474Z,1001.9
2019-05-02T03:53:17.387Z,1001.95
2019-05-02T03:53:52.199Z,1001.93
2019-05-02T03:54:32.799Z,1001.88
2019-05-02T03:55:13.345Z,1001.87
2019-05-02T03:55:53.899Z,1001.86
2019-05-02T03:56:34.468Z,1001.87
2019-05-02T03:57:15.047Z,1001.88
2019-05-02T03:57:55.595Z,1001.88
2019-05-02T03:58:36.161Z,1001.87
2019-05-02T03:59:16.753Z,1001.85
2019-05-02T03:59:57.335Z,1001.83
2019-05-02T04:00:37.880Z,1001.87
2019-05-02T04:01:18.445Z,1001.84
2019-05-02T04:01:59.152Z,1001.87
2019-05-02T04:02:39.658Z,1001.9
2019-05-02T04:03:20.213Z,1001.84
2019-05-02T04:04:00.764Z,1001.85
2019-05-02T04:04:41.317Z,1001.87
2019-05-02T04:05:21.866Z,1001.87
2019-05-02T04:06:02.450Z,1001.87
2019-05-02T04:06:42.999Z,1001.83
2019-05-02T04:07:23.556Z,1001.86
2019-05-02T04:08:04.105Z,1001.81
2019-05-02T04:08:44.680Z,1001.88
2019-05-02T04:09:25.234Z,1001.9
2019-05-02T04:10:05.787Z,1001.87
2019-05-02T04:10:46.343Z,1001.89
2019-05-02T04:11:37.801Z,1001.85
2019-05-02T04:12:11.391Z,1001.8
2019-05-02T04:12:52.921Z,1001.87
2019-05-02T04:13:29.969Z,1001.86
2019-05-02T04:14:15.867Z,1001.93
2019-05-02T04:14:55.250Z,1001.91
2019-05-02T04:15:34.991Z,1001.87
2019-05-02T04:16:15.222Z,1001.91
2019-05-02T04:16:55.037Z,1001.89
2019-05-02T04:17:35.192Z,1001.91
2019-05-02T04:18:15.154Z,1001.96
2019-05-02T04:18:55.545Z,1001.94
2019-05-02T04:19:34.741Z,1001.86
2019-05-02T04:20:14.574Z,1001.92
2019-05-02T04:20:55.150Z,1001.9
2019-05-02T04:21:35.697Z,1001.99
2019-05-02T04:22:16.266Z,1001.99
2019-05-02T04:22:56.812Z,1001.97
2019-05-02T04:23:37.370Z,1002
2019-05-02T04:24:17.920Z,1001.98
2019-05-02T04:24:58.484Z,1001.97
2019-05-02T04:25:39.045Z,1001.94
2019-05-02T04:26:19.625Z,1001.95
2019-05-02T04:27:00.156Z,1002.01
2019-05-02T04:27:40.739Z,1001.94
2019-05-02T04:28:21.311Z,1001.99
2019-05-02T04:29:01.899Z,1001.98
2019-05-02T04:29:42.463Z,1001.93
2019-05-02T04:30:23.048Z,1002.01
2019-05-02T04:31:03.605Z,1002
2019-05-02T04:31:44.197Z,1002.02
2019-05-02T04:32:24.794Z,1002.06
2019-05-02T04:33:05.325Z,1001.99
2019-05-02T04:33:45.903Z,1001.94
2019-05-02T04:34:26.443Z,1001.99
2019-05-02T04:35:07.013Z,1001.98
2019-05-02T04:35:47.599Z,1001.97
2019-05-02T04:36:28.180Z,1001.99
2019-05-02T04:37:08.754Z,1001.94
2019-05-02T04:37:49.402Z,1001.98
2019-05-02T04:38:38.438Z,1001.97
2019-05-02T04:39:12.458Z,1001.96
2019-05-02T04:39:53.637Z,1001.96
2019-05-02T04:40:34.788Z,1002
2019-05-02T04:41:18.603Z,1001.96
2019-05-02T04:41:52.813Z,1001.97
2019-05-02T04:42:33.389Z,1001.99
2019-05-02T04:43:13.942Z,1002.03
2019-05-02T04:43:57.799Z,1002
2019-05-02T04:44:40.620Z,1002.03
2019-05-02T04:45:26.130Z,1002.03
2019-05-02T04:45:59.774Z,1002.01
2019-05-02T04:46:38.729Z,1002.03
2019-05-02T04:47:21.742Z,1002
2019-05-02T04:48:03.075Z,1002.12
2019-05-02T04:48:41.317Z,1002.08
2019-05-02T04:49:28.261Z,1002.02
2019-05-02T04:49:59.634Z,1002.05
2019-05-02T04:50:40.188Z,1002.06
2019-05-02T04:51:20.906Z,1002.06
2019-05-02T04:52:06.673Z,1002.08
2019-05-02T04:52:48.094Z,1002.12
2019-05-02T04:53:25.185Z,1001.98
2019-05-02T04:54:02.973Z,1001.94
2019-05-02T04:54:43.538Z,1002
2019-05-02T04:55:29.809Z,1002.01
2019-05-02T04:56:07.617Z,1002.04
2019-05-02T04:56:49.347Z,1002.03
2019-05-02T04:57:35.514Z,1002.01
2019-05-02T04:58:08.290Z,1002.04
2019-05-02T04:58:49.310Z,1002.03
2019-05-02T04:59:28.424Z,1001.96
2019-05-02T05:00:11.459Z,1002.03
2019-05-02T05:00:51.259Z,1002.04
2019-05-02T05:01:41.843Z,1002.03
2019-05-02T05:02:11.323Z,1001.98
2019-05-02T05:02:53.167Z,1002.04
2019-05-02T05:03:33.784Z,1002.01
2019-05-02T05:04:14.628Z,1002.05
2019-05-02T05:04:55.273Z,1002
2019-05-02T05:05:37.678Z,1002.05
2019-05-02T05:06:18.800Z,1001.95
2019-05-02T05:07:01.040Z,1001.99
2019-05-02T05:07:43.677Z,1001.97
2019-05-02T05:08:26.153Z,1001.99
2019-05-02T05:09:03.947Z,1001.91
2019-05-02T05:09:47.759Z,1001.92
2019-05-02T05:10:22.776Z,1002.06
2019-05-02T05:11:03.669Z,1002.03
2019-05-02T05:11:44.572Z,1001.94
2019-05-02T05:12:25.407Z,1001.93
2019-05-02T05:13:07.715Z,1002
2019-05-02T05:13:47.889Z,1001.92
2019-05-02T05:14:31.276Z,1001.9
2019-05-02T05:15:13.290Z,1001.99
2019-05-02T05:15:51.883Z,1001.93
2019-05-02T05:16:30.735Z,1001.99
2019-05-02T05:17:11.626Z,1001.98
2019-05-02T05:17:52.323Z,1001.94
2019-05-02T05:18:33.230Z,1001.98
2019-05-02T05:19:14.057Z,1001.91
2019-05-02T05:19:55.019Z,1001.96
2019-05-02T05:20:38.388Z,1001.93
2019-05-02T05:21:17.795Z,1001.97
2019-05-02T05:22:04.313Z,1001.97
2019-05-02T05:22:44.117Z,1001.96
2019-05-02T05:23:21.406Z,1001.97
2019-05-02T05:24:01.427Z,1001.96
2019-05-02T05:24:42.431Z,1001.98
2019-05-02T05:25:21.893Z,1001.89
2019-05-02T05:26:04.605Z,1001.93
2019-05-02T05:26:44.193Z,1001.92
2019-05-02T05:27:25.012Z,1001.96
2019-05-02T05:28:06.226Z,1001.98
2019-05-02T05:28:47.617Z,1001.98
2019-05-02T05:29:26.940Z,1001.91
2019-05-02T05:30:11.046Z,1001.96
2019-05-02T05:30:49.614Z,1001.97
2019-05-02T05:31:29.097Z,1001.96
2019-05-02T05:32:10.121Z,1002
2019-05-02T05:32:49.705Z,1001.91
2019-05-02T05:33:30.341Z,1001.99
2019-05-02T05:34:10.917Z,1002.02
2019-05-02T05:34:51.552Z,1001.98
2019-05-02T05:35:32.118Z,1002.01
2019-05-02T05:36:12.722Z,1002.03
2019-05-02T05:36:53.243Z,1002.03
2019-05-02T05:37:33.795Z,1002.07
2019-05-02T05:38:14.402Z,1002.04
2019-05-02T05:38:54.980Z,1002.08
2019-05-02T05:39:37.895Z,1002.04
2019-05-02T05:40:17.628Z,1002.04
2019-05-02T05:40:58.030Z,1002.04
2019-05-02T05:41:37.882Z,1002.14
2019-05-02T05:42:18.054Z,1002
2019-05-02T05:43:02.076Z,1002.06
2019-05-02T05:43:39.038Z,1002.02
2019-05-02T05:44:23.161Z,1002.06
2019-05-02T05:45:03.641Z,1002.07
2019-05-02T05:45:50.526Z,1002.12
2019-05-02T05:46:21.263Z,1002.1
2019-05-02T05:47:01.811Z,1002.09
2019-05-02T05:47:42.382Z,1002.02
2019-05-02T05:48:22.969Z,1002.09
2019-05-02T05:49:03.570Z,1002.04
2019-05-02T05:49:44.118Z,1002
2019-05-02T05:50:24.674Z,1002.04
2019-05-02T05:51:07.046Z,1002.06
2019-05-02T05:51:47.451Z,1002.01
2019-05-02T05:52:27.119Z,1001.96
2019-05-02T05:53:07.874Z,1001.98
2019-05-02T05:53:47.920Z,1002.05
2019-05-02T05:54:28.484Z,1001.99
2019-05-02T05:55:12.667Z,1001.99
2019-05-02T05:55:53.486Z,1001.96
2019-05-02T05:56:32.413Z,1001.95
2019-05-02T05:57:12.075Z,1001.94
2019-05-02T05:57:59.456Z,1001.94
2019-05-02T05:58:31.667Z,1001.93
2019-05-02T05:59:12.235Z,1001.97
2019-05-02T05:59:52.815Z,1001.98
2019-05-02T06:00:33.367Z,1001.97
2019-05-02T06:01:13.955Z,1001.96
2019-05-02T06:01:54.540Z,1001.99
2019-05-02T06:02:50.668Z,1002
2019-05-02T06:03:17.666Z,1001.98
2019-05-02T06:03:57.979Z,1001.93
2019-05-02T06:04:38.681Z,1001.99
2019-05-02T06:05:17.589Z,1001.95
2019-05-02T06:05:58.100Z,1001.97
2019-05-02T06:06:38.560Z,1001.98
2019-05-02T06:07:20.022Z,1001.99
2019-05-02T06:07:59.699Z,1001.98
2019-05-02T06:08:40.251Z,1001.94
2019-05-02T06:09:21.375Z,1001.98
2019-05-02T06:10:07.164Z,1001.96
2019-05-02T06:10:43.843Z,1002.01
2019-05-02T06:11:23.091Z,1001.97
2019-05-02T06:12:03.666Z,1001.99
2019-05-02T06:12:44.213Z,1002
2019-05-02T06:13:24.817Z,1001.97
2019-05-02T06:14:05.376Z,1001.98
2019-05-02T06:14:46.480Z,1002.03
2019-05-02T06:15:26.523Z,1001.98
2019-05-02T06:16:10.397Z,1001.91
2019-05-02T06:16:51.637Z,1001.93
2019-05-02T06:17:30.093Z,1001.96
2019-05-02T06:18:08.767Z,1001.88
2019-05-02T06:18:49.327Z,1001.98
2019-05-02T06:19:29.886Z,1001.94
2019-05-02T06:20:10.450Z,1001.91
2019-05-02T06:20:51.018Z,1001.89
2019-05-02T06:21:31.575Z,1001.9
2019-05-02T06:22:15.995Z,1001.89
2019-05-02T06:22:54.892Z,1001.86
2019-05-02T06:23:35.967Z,1001.85
2019-05-02T06:24:15.632Z,1001.87
2019-05-02T06:24:54.393Z,1001.83
2019-05-02T06:25:36.637Z,1001.87
2019-05-02T06:26:15.839Z,1001.84
2019-05-02T06:26:56.143Z,1001.81
2019-05-02T06:27:36.767Z,1001.78
2019-05-02T06:28:17.325Z,1001.78
2019-05-02T06:28:57.878Z,1001.78
2019-05-02T06:29:38.501Z,1001.8
2019-05-02T06:30:19.069Z,1001.78
2019-05-02T06:31:02.074Z,1001.81
2019-05-02T06:31:42.961Z,1001.66
2019-05-02T06:32:20.775Z,1001.77
2019-05-02T06:33:01.347Z,1001.73
2019-05-02T06:33:41.894Z,1001.71
2019-05-02T06:34:22.475Z,1001.69
2019-05-02T06:35:03.117Z,1001.7
2019-05-02T06:35:43.661Z,1001.67
2019-05-02T06:36:24.240Z,1001.68
2019-05-02T06:37:08.062Z,1001.7
2019-05-02T06:37:49.868Z,1001.63
2019-05-02T06:38:25.959Z,1001.64
2019-05-02T06:39:06.542Z,1001.6
2019-05-02T06:39:47.132Z,1001.65
2019-05-02T06:40:27.780Z,1001.7
2019-05-02T06:41:08.296Z,1001.58
2019-05-02T06:41:51.959Z,1001.6
2019-05-02T06:42:32.567Z,1001.63
2019-05-02T06:43:11.395Z,1001.57
2019-05-02T06:43:50.613Z,1001.62
2019-05-02T06:44:31.194Z,1001.62
2019-05-02T06:45:11.771Z,1001.6
2019-05-02T06:45:52.345Z,1001.61
2019-05-02T06:46:32.944Z,1001.61
2019-05-02T06:47:13.503Z,1001.57
2019-05-02T06:47:54.069Z,1001.61
2019-05-02T06:48:34.625Z,1001.58
2019-05-02T06:49:15.175Z,1001.5
2019-05-02T06:49:56.012Z,1001.58
2019-05-02T06:50:38.740Z,1001.53
2019-05-02T06:51:19.459Z,1001.59
2019-05-02T06:51:57.684Z,1001.56
2019-05-02T06:52:38.017Z,1001.59
2019-05-02T06:53:18.659Z,1001.56
2019-05-02T06:53:59.161Z,1001.58
2019-05-02T06:54:39.720Z,1001.59
2019-05-02T06:55:20.262Z,1001.59
2019-05-02T06:56:00.862Z,1001.59
2019-05-02T06:56:42.998Z,1001.63
2019-05-02T06:57:23.998Z,1001.61
2019-05-02T06:58:07.722Z,1001.58
2019-05-02T06:58:43.357Z,1001.56
2019-05-02T06:59:23.666Z,1001.59
2019-05-02T07:00:06.450Z,1001.62
2019-05-02T07:00:56.355Z,1001.66
2019-05-02T07:01:25.437Z,1001.64
2019-05-02T07:02:05.999Z,1001.65
2019-05-02T07:02:46.567Z,1001.62
2019-05-02T07:03:27.815Z,1001.64
2019-05-02T07:04:08.411Z,1001.64
2019-05-02T07:04:49.027Z,1001.7
2019-05-02T07:05:29.599Z,1001.66
2019-05-02T07:06:10.156Z,1001.74
2019-05-02T07:06:58.441Z,1001.69
2019-05-02T07:07:36.389Z,1001.73
2019-05-02T07:08:13.981Z,1001.66
2019-05-02T07:08:52.458Z,1001.68
2019-05-02T07:09:40.189Z,1001.65
2019-05-02T07:10:13.566Z,1001.64
2019-05-02T07:10:55.828Z,1001.66
2019-05-02T07:11:38.733Z,1001.72
2019-05-02T07:12:16.608Z,1001.64
2019-05-02T07:13:09.375Z,1001.74
2019-05-02T07:13:41.819Z,1001.78
2019-05-02T07:14:18.505Z,1001.73
2019-05-02T07:15:01.486Z,1001.68
2019-05-02T07:15:40.170Z,1001.8
2019-05-02T07:16:36.756Z,1001.73
2019-05-02T07:16:59.310Z,1001.68
2019-05-02T07:17:39.845Z,1001.78
2019-05-02T07:18:20.418Z,1001.79
2019-05-02T07:19:01.094Z,1001.86
2019-05-02T07:19:41.668Z,1001.76
2019-05-02T07:20:22.273Z,1001.75
2019-05-02T07:21:02.829Z,1001.79
2019-05-02T07:21:43.388Z,1001.8
2019-05-02T07:22:23.957Z,1001.78
2019-05-02T07:23:04.544Z,1001.77
2019-05-02T07:23:48.536Z,1001.81
2019-05-02T07:24:30.497Z,1001.82
2019-05-02T07:25:06.803Z,1001.8
2019-05-02T07:25:46.801Z,1001.82
2019-05-02T07:26:27.409Z,1001.83
2019-05-02T07:27:07.971Z,1001.75
2019-05-02T07:27:48.519Z,1001.78
2019-05-02T07:28:29.072Z,1001.76
2019-05-02T07:29:09.650Z,1001.77
2019-05-02T07:29:52.017Z,1001.71
2019-05-02T07:30:34.954Z,1001.77
2019-05-02T07:31:12.191Z,1001.77
2019-05-02T07:31:53.505Z,1001.74
2019-05-02T07:32:32.513Z,1001.73
2019-05-02T07:33:13.074Z,1001.76
2019-05-02T07:33:53.645Z,1001.72
2019-05-02T07:34:34.407Z,1001.8
2019-05-02T07:35:19.117Z,1001.77
2019-05-02T07:36:00.007Z,1001.79
2019-05-02T07:36:38.121Z,1001.75
2019-05-02T07:37:16.806Z,1001.78
2019-05-02T07:37:57.380Z,1001.71
2019-05-02T07:38:37.954Z,1001.76
2019-05-02T07:39:18.523Z,1001.8
2019-05-02T07:39:59.094Z,1001.79
2019-05-02T07:40:39.662Z,1001.79
2019-05-02T07:41:24.075Z,1001.77
2019-05-02T07:42:05.733Z,1001.83
2019-05-02T07:42:41.726Z,1001.77
2019-05-02T07:43:22.378Z,1001.77
2019-05-02T07:44:04.388Z,1001.79
2019-05-02T07:44:43.096Z,1001.78
2019-05-02T07:45:23.670Z,1001.8
2019-05-02T07:46:04.238Z,1001.83
2019-05-02T07:46:51.438Z,1001.79
2019-05-02T07:47:25.386Z,1001.78
2019-05-02T07:48:05.947Z,1001.84
2019-05-02T07:48:48.671Z,1001.85
2019-05-02T07:49:32.094Z,1001.81
2019-05-02T07:50:10.244Z,1001.82
2019-05-02T07:50:48.322Z,1001.79
2019-05-02T07:51:28.709Z,1001.84
2019-05-02T07:52:09.280Z,1001.82
2019-05-02T07:52:49.844Z,1001.83
2019-05-02T07:53:30.412Z,1001.81
2019-05-02T07:54:11.058Z,1001.78
2019-05-02T07:54:51.618Z,1001.82
2019-05-02T07:55:35.290Z,1001.84
2019-05-02T07:56:17.521Z,1001.85
2019-05-02T07:56:54.634Z,1001.81
2019-05-02T07:57:34.238Z,1001.85
2019-05-02T07:58:14.796Z,1001.78
2019-05-02T07:58:55.366Z,1001.77
2019-05-02T07:59:35.957Z,1001.76
2019-05-02T08:00:16.526Z,1001.76
2019-05-02T08:00:57.126Z,1001.76
2019-05-02T08:01:37.718Z,1001.75
2019-05-02T08:02:20.154Z,1001.75
2019-05-02T08:02:59.405Z,1001.75
2019-05-02T08:03:39.428Z,1001.74
2019-05-02T08:04:20.035Z,1001.72
2019-05-02T08:05:00.583Z,1001.73
2019-05-02T08:05:41.165Z,1001.77
2019-05-02T08:06:34.561Z,1001.69
2019-05-02T08:07:02.343Z,1001.75
2019-05-02T08:07:42.900Z,1001.79
2019-05-02T08:08:24.953Z,1001.77
2019-05-02T08:09:07.039Z,1001.7
2019-05-02T08:09:45.289Z,1001.7
2019-05-02T08:10:25.174Z,1001.71
2019-05-02T08:11:05.754Z,1001.7
2019-05-02T08:11:46.329Z,1001.71
2019-05-02T08:12:26.897Z,1001.68
2019-05-02T08:13:11.961Z,1001.66
2019-05-02T08:13:49.447Z,1001.66
2019-05-02T08:14:33.947Z,1001.62
2019-05-02T08:15:13.008Z,1001.66
2019-05-02T08:15:51.015Z,1001.63
2019-05-02T08:16:30.871Z,1001.66
2019-05-02T08:17:16.942Z,1001.67
2019-05-02T08:17:53.673Z,1001.63
2019-05-02T08:18:32.616Z,1001.65
2019-05-02T08:19:13.213Z,1001.6
2019-05-02T08:19:53.823Z,1001.58